KMFD/MFD METAR and TAF weather

Enter ICAO airport designator
Station Type Date Time Source
KMFD METAR 2022/01/29 08:52 UTC NOAA

KMFD 290852Z AUTO 33007KT 10SM CLR M18/M20 A3014 RMK AO2 SLP234 I1000 I3000 T11831200 56008


Station Type Date Time Source
KMFD Decoded METAR 2022/01/29 08:52 UTC NOAA

LAHM MUNICIPAL AIRPORT, OH, United States (KMFD) 40-49N 082-31W 395M
Jan 29, 2022 - 03:52 AM EST / 2022.01.29 0852 UTC
Wind: from the NNW (330 degrees) at 8 MPH (7 KT):0
Visibility: 10 mile(s):0
Sky conditions: clear
Temperature: -0.9 F (-18.3 C)
Windchill: -14 F (-26 C):2
Dew Point: -4.0 F (-20.0 C)
Relative Humidity: 86%
Pressure (altimeter): 30.14 in. Hg (1020 hPa)
Pressure tendency: 0.02 inches (0.8 hPa) lower than three hours ago
ob: KMFD 290852Z AUTO 33007KT 10SM CLR M18/M20 A3014 RMK AO2 SLP234 I1000 I3000 T11831200 56008
cycle: 9

Station Type Date Time Source
KMFD TAF 2022/01/29 06:24 UTC NOAA

TAF KMFD 290522Z 2906/3006 33008KT P6SM SCT020
FM292200 VRB03KT P6SM SCT180
FM300100 22006KT P6SM SCT050 BKN180

Example: see airport list